Sunflower Hakata — JL6711 — position and weather

sailwx.info

Track history (hours):
 
Tides and Currents Weather Stations Pressure Air Temp Water Temp Dewpoint Dewpoint Depression Visibility Wind Speed Wind Dir Waves Ship Positions

Sunflower Hakata

Last reported at 2016-Dec-04 19:33 UTC. Time now 2016-Dec-04 20:28 UTC.
Position N 35°28' E 139°51'.

Length 194 m; draft 6.6 m.

Type: Cargo ship. MMSI: 431501764.

Date/timePositionNaut miles runAvg speedWind from/ knotsBaromVisibWave heightAir tempDewpointWater temp
2016-Dec-04 19:33N 35°28' E 139°51'1312.7
2016-Dec-04 18:33N 35°16' E 139°46'1615.7
2016-Dec-04 17:34N 35°02' E 139°40'23818.3
2016-Dec-04 04:34N 33°58' E 135°01'2121.3
2016-Dec-04 03:33N 34°20' E 134°59'1717.4
2016-Dec-04 02:34N 34°37' E 134°59'  
2016-Dec-01 14:23N 35°02' E 139°37'1517.8
2016-Dec-01 13:33N 35°14' E 139°46'1313.5
2016-Dec-01 12:33N 35°28' E 139°48'9 9.2
2016-Dec-01 11:33N 35°37' E 139°48'0 0.0
2016-Dec-01 10:33N 35°37' E 139°48'0 0.0
2016-Dec-01 09:33N 35°37' E 139°48'0 0.0
2016-Dec-01 08:32N 35°37' E 139°48'0 0.0
2016-Dec-01 07:29N 35°37' E 139°48'0 0.0
2016-Nov-30 22:17N 35°37' E 139°48'0 0.0
2016-Nov-30 21:23N 35°37' E 139°48'0 0.0
2016-Nov-30 20:33N 35°37' E 139°48'8 8.2
2016-Nov-30 19:33N 35°30' E 139°53'1413.9
2016-Nov-30 18:33N 35°17' E 139°45'1515.2
2016-Nov-30 17:33N 35°02' E 139°42'24118.5
2016-Nov-30 04:33N 34°01' E 134°59'2322.8
2016-Nov-30 03:33N 34°24' E 135°00'1312.5
2016-Nov-30 02:32N 34°34' E 134°52'  
2016-Nov-26 14:16N 34°60' E 139°33'1520.5
2016-Nov-26 13:33N 35°11' E 139°46'1312.9
2016-Nov-26 12:34N 35°23' E 139°42'1414.3
2016-Nov-26 11:33N 35°37' E 139°48'0 0.4
2016-Nov-26 10:33N 35°37' E 139°48'0 0.0
2016-Nov-26 09:33N 35°37' E 139°48'0 0.0
2016-Nov-26 08:23N 35°37' E 139°48'0 0.0
2016-Nov-26 07:29N 35°37' E 139°48'0 0.0
2016-Nov-26 06:32N 35°37' E 139°48'0 0.0
2016-Nov-26 05:32N 35°37' E 139°48'0 0.0
2016-Nov-26 04:26N 35°37' E 139°48'0 0.0
2016-Nov-26 03:23N 35°37' E 139°48'0 0.0
2016-Nov-26 02:29N 35°37' E 139°48'0 0.0
2016-Nov-26 01:11N 35°37' E 139°48'0 0.0
2016-Nov-26 00:29N 35°37' E 139°48'0 0.0
2016-Nov-25 23:20N 35°37' E 139°48'0 0.0
2016-Nov-25 22:29N 35°37' E 139°48'0 0.0
2016-Nov-25 21:32N 35°37' E 139°48'0 0.0
2016-Nov-25 20:33N 35°37' E 139°48'8 8.5
2016-Nov-25 19:33N 35°29' E 139°52'1313.4
2016-Nov-25 18:33N 35°17' E 139°45'1515.0
2016-Nov-25 17:33N 35°03' E 139°41'24118.2
2016-Nov-25 04:19N 33°55' E 135°01'1722.0
2016-Nov-25 03:33N 34°11' E 134°59'2222.6
2016-Nov-25 02:33N 34°33' E 135°03'2119.8
2016-Nov-25 01:30N 34°33' E 134°38'  
Track history (hours):
 
Tides and Currents Weather Stations Pressure Air Temp Water Temp Dewpoint Dewpoint Depression Visibility Wind Speed Wind Dir Waves Ship Positions

Sunflower Hakata

Last reported at 2016-Dec-04 19:33 UTC. Time now 2016-Dec-04 20:28 UTC.
Position N 35°28' E 139°51'.

Length 194 m; draft 6.6 m.

Type: Cargo ship. MMSI: 431501764.

Date/timePositionNaut miles runAvg speedWind from/ knotsBaromVisibWave heightAir tempDewpointWater temp
2016-Dec-04 19:33N 35°28' E 139°51'1312.7
2016-Dec-04 18:33N 35°16' E 139°46'1615.7
2016-Dec-04 17:34N 35°02' E 139°40'23818.3
2016-Dec-04 04:34N 33°58' E 135°01'2121.3
2016-Dec-04 03:33N 34°20' E 134°59'1717.4
2016-Dec-04 02:34N 34°37' E 134°59'  
2016-Dec-01 14:23N 35°02' E 139°37'1517.8
2016-Dec-01 13:33N 35°14' E 139°46'1313.5
2016-Dec-01 12:33N 35°28' E 139°48'9 9.2
2016-Dec-01 11:33N 35°37' E 139°48'0 0.0
2016-Dec-01 10:33N 35°37' E 139°48'0 0.0
2016-Dec-01 09:33N 35°37' E 139°48'0 0.0
2016-Dec-01 08:32N 35°37' E 139°48'0 0.0
2016-Dec-01 07:29N 35°37' E 139°48'0 0.0
2016-Nov-30 22:17N 35°37' E 139°48'0 0.0
2016-Nov-30 21:23N 35°37' E 139°48'0 0.0
2016-Nov-30 20:33N 35°37' E 139°48'8 8.2
2016-Nov-30 19:33N 35°30' E 139°53'1413.9
2016-Nov-30 18:33N 35°17' E 139°45'1515.2
2016-Nov-30 17:33N 35°02' E 139°42'24118.5
2016-Nov-30 04:33N 34°01' E 134°59'2322.8
2016-Nov-30 03:33N 34°24' E 135°00'1312.5
2016-Nov-30 02:32N 34°34' E 134°52'  
2016-Nov-26 14:16N 34°60' E 139°33'1520.5
2016-Nov-26 13:33N 35°11' E 139°46'1312.9
2016-Nov-26 12:34N 35°23' E 139°42'1414.3
2016-Nov-26 11:33N 35°37' E 139°48'0 0.4
2016-Nov-26 10:33N 35°37' E 139°48'0 0.0
2016-Nov-26 09:33N 35°37' E 139°48'0 0.0
2016-Nov-26 08:23N 35°37' E 139°48'0 0.0
2016-Nov-26 07:29N 35°37' E 139°48'0 0.0
2016-Nov-26 06:32N 35°37' E 139°48'0 0.0
2016-Nov-26 05:32N 35°37' E 139°48'0 0.0
2016-Nov-26 04:26N 35°37' E 139°48'0 0.0
2016-Nov-26 03:23N 35°37' E 139°48'0 0.0
2016-Nov-26 02:29N 35°37' E 139°48'0 0.0
2016-Nov-26 01:11N 35°37' E 139°48'0 0.0
2016-Nov-26 00:29N 35°37' E 139°48'0 0.0
2016-Nov-25 23:20N 35°37' E 139°48'0 0.0
2016-Nov-25 22:29N 35°37' E 139°48'0 0.0
2016-Nov-25 21:32N 35°37' E 139°48'0 0.0
2016-Nov-25 20:33N 35°37' E 139°48'8 8.5
2016-Nov-25 19:33N 35°29' E 139°52'1313.4
2016-Nov-25 18:33N 35°17' E 139°45'1515.0
2016-Nov-25 17:33N 35°03' E 139°41'24118.2
2016-Nov-25 04:19N 33°55' E 135°01'1722.0
2016-Nov-25 03:33N 34°11' E 134°59'2222.6
2016-Nov-25 02:33N 34°33' E 135°03'2119.8
2016-Nov-25 01:30N 34°33' E 134°38'  

Dump ship's entire track history